sensor_id;sensor_type;location;lat;lon;timestamp;P1;durP1;ratioP1;P2;durP2;ratioP2
60205;SDS011;46072;51.554;6.846;2022-11-11T00:00:49;23.25;;;9.07;;
60205;SDS011;46072;51.554;6.846;2022-11-11T00:03:16;20.63;;;8.68;;
60205;SDS011;46072;51.554;6.846;2022-11-11T00:05:50;24.90;;;9.45;;
60205;SDS011;46072;51.554;6.846;2022-11-11T00:08:16;25.10;;;9.82;;
60205;SDS011;46072;51.554;6.846;2022-11-11T00:10:43;23.15;;;9.18;;
60205;SDS011;46072;51.554;6.846;2022-11-11T00:13:09;28.48;;;8.93;;
60205;SDS011;46072;51.554;6.846;2022-11-11T00:15:36;25.58;;;9.90;;
60205;SDS011;46072;51.554;6.846;2022-11-11T00:18:04;27.63;;;9.75;;
60205;SDS011;46072;51.554;6.846;2022-11-11T00:20:50;28.42;;;10.50;;
60205;SDS011;46072;51.554;6.846;2022-11-11T00:23:35;21.95;;;9.93;;
60205;SDS011;46072;51.554;6.846;2022-11-11T00:26:20;31.20;;;10.52;;
60205;SDS011;46072;51.554;6.846;2022-11-11T00:29:06;33.25;;;10.88;;
60205;SDS011;46072;51.554;6.846;2022-11-11T00:31:34;23.70;;;10.45;;
60205;SDS011;46072;51.554;6.846;2022-11-11T00:34:00;24.83;;;9.98;;
60205;SDS011;46072;51.554;6.846;2022-11-11T00:36:27;23.15;;;10.23;;
60205;SDS011;46072;51.554;6.846;2022-11-11T00:38:53;26.95;;;11.02;;
60205;SDS011;46072;51.554;6.846;2022-11-11T00:41:21;27.65;;;10.75;;
60205;SDS011;46072;51.554;6.846;2022-11-11T00:43:49;32.40;;;11.23;;
60205;SDS011;46072;51.554;6.846;2022-11-11T00:46:15;26.58;;;10.55;;
60205;SDS011;46072;51.554;6.846;2022-11-11T00:49:00;30.15;;;11.57;;
60205;SDS011;46072;51.554;6.846;2022-11-11T00:51:45;34.53;;;11.88;;
60205;SDS011;46072;51.554;6.846;2022-11-11T00:54:12;27.20;;;9.75;;
60205;SDS011;46072;51.554;6.846;2022-11-11T00:56:38;21.98;;;11.25;;
60205;SDS011;46072;51.554;6.846;2022-11-11T00:59:06;32.95;;;10.95;;
60205;SDS011;46072;51.554;6.846;2022-11-11T01:01:34;23.70;;;10.57;;
60205;SDS011;46072;51.554;6.846;2022-11-11T01:04:01;23.52;;;10.40;;
60205;SDS011;46072;51.554;6.846;2022-11-11T01:06:28;24.35;;;10.52;;
60205;SDS011;46072;51.554;6.846;2022-11-11T01:08:54;28.52;;;10.68;;
60205;SDS011;46072;51.554;6.846;2022-11-11T01:11:22;27.13;;;10.95;;
60205;SDS011;46072;51.554;6.846;2022-11-11T01:13:49;29.13;;;11.68;;
60205;SDS011;46072;51.554;6.846;2022-11-11T01:16:18;27.30;;;11.52;;
60205;SDS011;46072;51.554;6.846;2022-11-11T01:18:46;27.70;;;12.27;;
60205;SDS011;46072;51.554;6.846;2022-11-11T01:23:42;34.53;;;10.68;;
60205;SDS011;46072;51.554;6.846;2022-11-11T01:26:10;29.92;;;13.25;;
60205;SDS011;46072;51.554;6.846;2022-11-11T01:28:39;31.92;;;13.57;;
60205;SDS011;46072;51.554;6.846;2022-11-11T01:31:07;35.53;;;12.85;;
60205;SDS011;46072;51.554;6.846;2022-11-11T01:33:36;32.08;;;12.13;;
60205;SDS011;46072;51.554;6.846;2022-11-11T01:36:03;31.85;;;13.90;;
60205;SDS011;46072;51.554;6.846;2022-11-11T01:38:32;32.47;;;13.20;;
60205;SDS011;46072;51.554;6.846;2022-11-11T01:40:59;31.73;;;13.77;;
60205;SDS011;46072;51.554;6.846;2022-11-11T01:43:25;30.05;;;13.32;;
60205;SDS011;46072;51.554;6.846;2022-11-11T01:45:59;33.05;;;12.15;;
60205;SDS011;46072;51.554;6.846;2022-11-11T01:48:28;34.83;;;12.32;;
60205;SDS011;46072;51.554;6.846;2022-11-11T01:51:21;31.30;;;12.05;;
60205;SDS011;46072;51.554;6.846;2022-11-11T01:53:56;29.45;;;11.15;;
60205;SDS011;46072;51.554;6.846;2022-11-11T01:56:25;25.08;;;10.82;;
60205;SDS011;46072;51.554;6.846;2022-11-11T01:58:52;29.90;;;12.27;;
60205;SDS011;46072;51.554;6.846;2022-11-11T02:01:21;23.15;;;10.93;;
60205;SDS011;46072;51.554;6.846;2022-11-11T02:03:48;27.85;;;11.00;;
60205;SDS011;46072;51.554;6.846;2022-11-11T02:06:35;31.02;;;11.77;;
60205;SDS011;46072;51.554;6.846;2022-11-11T02:09:03;27.98;;;10.90;;
60205;SDS011;46072;51.554;6.846;2022-11-11T02:11:31;31.25;;;12.23;;
60205;SDS011;46072;51.554;6.846;2022-11-11T02:14:18;29.08;;;12.45;;
60205;SDS011;46072;51.554;6.846;2022-11-11T02:17:05;35.25;;;9.95;;
60205;SDS011;46072;51.554;6.846;2022-11-11T02:20:07;30.13;;;11.63;;
60205;SDS011;46072;51.554;6.846;2022-11-11T02:25:08;30.83;;;11.25;;
60205;SDS011;46072;51.554;6.846;2022-11-11T02:27:36;30.25;;;12.15;;
60205;SDS011;46072;51.554;6.846;2022-11-11T02:30:06;28.52;;;12.43;;
60205;SDS011;46072;51.554;6.846;2022-11-11T02:32:44;36.42;;;12.27;;
60205;SDS011;46072;51.554;6.846;2022-11-11T02:35:34;30.05;;;12.70;;
60205;SDS011;46072;51.554;6.846;2022-11-11T02:38:03;35.85;;;12.32;;
60205;SDS011;46072;51.554;6.846;2022-11-11T02:40:41;27.05;;;11.45;;
60205;SDS011;46072;51.554;6.846;2022-11-11T02:43:29;29.65;;;11.38;;
60205;SDS011;46072;51.554;6.846;2022-11-11T02:45:57;30.35;;;12.60;;
60205;SDS011;46072;51.554;6.846;2022-11-11T02:48:24;28.23;;;13.15;;
60205;SDS011;46072;51.554;6.846;2022-11-11T02:50:51;41.17;;;13.88;;
60205;SDS011;46072;51.554;6.846;2022-11-11T02:53:18;32.33;;;13.63;;
60205;SDS011;46072;51.554;6.846;2022-11-11T02:55:45;34.47;;;13.80;;
60205;SDS011;46072;51.554;6.846;2022-11-11T02:58:12;32.00;;;12.73;;
60205;SDS011;46072;51.554;6.846;2022-11-11T03:00:39;35.80;;;12.63;;
60205;SDS011;46072;51.554;6.846;2022-11-11T03:03:06;34.20;;;14.63;;
60205;SDS011;46072;51.554;6.846;2022-11-11T03:05:34;32.00;;;12.77;;
60205;SDS011;46072;51.554;6.846;2022-11-11T03:08:01;33.53;;;13.80;;
60205;SDS011;46072;51.554;6.846;2022-11-11T03:10:27;47.00;;;15.20;;
60205;SDS011;46072;51.554;6.846;2022-11-11T03:12:55;33.83;;;13.95;;
60205;SDS011;46072;51.554;6.846;2022-11-11T03:15:21;42.13;;;14.30;;
60205;SDS011;46072;51.554;6.846;2022-11-11T03:17:48;32.67;;;14.15;;
60205;SDS011;46072;51.554;6.846;2022-11-11T03:20:15;39.17;;;14.13;;
60205;SDS011;46072;51.554;6.846;2022-11-11T03:25:28;33.17;;;13.40;;
60205;SDS011;46072;51.554;6.846;2022-11-11T03:28:11;36.17;;;14.02;;
60205;SDS011;46072;51.554;6.846;2022-11-11T03:30:40;35.58;;;13.77;;
60205;SDS011;46072;51.554;6.846;2022-11-11T03:33:11;45.10;;;16.33;;
60205;SDS011;46072;51.554;6.846;2022-11-11T03:35:38;39.60;;;15.82;;
60205;SDS011;46072;51.554;6.846;2022-11-11T03:38:05;40.33;;;14.50;;
60205;SDS011;46072;51.554;6.846;2022-11-11T03:40:57;41.08;;;14.45;;
60205;SDS011;46072;51.554;6.846;2022-11-11T03:43:25;44.17;;;15.38;;
60205;SDS011;46072;51.554;6.846;2022-11-11T03:45:54;33.45;;;15.00;;
60205;SDS011;46072;51.554;6.846;2022-11-11T03:48:22;38.88;;;14.20;;
60205;SDS011;46072;51.554;6.846;2022-11-11T03:50:49;31.92;;;15.15;;
60205;SDS011;46072;51.554;6.846;2022-11-11T03:53:16;35.90;;;13.63;;
60205;SDS011;46072;51.554;6.846;2022-11-11T03:55:45;38.83;;;15.38;;
60205;SDS011;46072;51.554;6.846;2022-11-11T03:58:11;46.15;;;16.52;;
60205;SDS011;46072;51.554;6.846;2022-11-11T04:00:38;36.78;;;15.95;;
60205;SDS011;46072;51.554;6.846;2022-11-11T04:03:06;44.35;;;15.93;;
60205;SDS011;46072;51.554;6.846;2022-11-11T04:06:01;41.13;;;16.27;;
60205;SDS011;46072;51.554;6.846;2022-11-11T04:08:47;38.75;;;15.00;;
60205;SDS011;46072;51.554;6.846;2022-11-11T04:11:39;41.75;;;15.68;;
60205;SDS011;46072;51.554;6.846;2022-11-11T04:14:08;38.20;;;14.13;;
60205;SDS011;46072;51.554;6.846;2022-11-11T04:16:54;37.08;;;13.98;;
60205;SDS011;46072;51.554;6.846;2022-11-11T04:19:21;34.40;;;15.25;;
60205;SDS011;46072;51.554;6.846;2022-11-11T04:22:06;47.80;;;14.93;;
60205;SDS011;46072;51.554;6.846;2022-11-11T04:24:33;37.67;;;14.82;;
60205;SDS011;46072;51.554;6.846;2022-11-11T04:27:18;35.40;;;14.35;;
60205;SDS011;46072;51.554;6.846;2022-11-11T04:29:45;31.33;;;12.52;;
60205;SDS011;46072;51.554;6.846;2022-11-11T04:32:14;36.33;;;14.02;;
60205;SDS011;46072;51.554;6.846;2022-11-11T04:35:04;43.22;;;15.07;;
60205;SDS011;46072;51.554;6.846;2022-11-11T04:37:35;35.10;;;13.30;;
60205;SDS011;46072;51.554;6.846;2022-11-11T04:40:10;37.25;;;13.13;;
60205;SDS011;46072;51.554;6.846;2022-11-11T04:42:55;32.80;;;13.95;;
60205;SDS011;46072;51.554;6.846;2022-11-11T04:45:21;38.38;;;13.20;;
60205;SDS011;46072;51.554;6.846;2022-11-11T04:48:09;38.10;;;15.32;;
60205;SDS011;46072;51.554;6.846;2022-11-11T04:50:36;36.90;;;14.27;;
60205;SDS011;46072;51.554;6.846;2022-11-11T04:53:08;34.90;;;14.68;;
60205;SDS011;46072;51.554;6.846;2022-11-11T04:55:36;44.60;;;15.65;;
60205;SDS011;46072;51.554;6.846;2022-11-11T04:58:23;36.55;;;14.38;;
60205;SDS011;46072;51.554;6.846;2022-11-11T05:00:51;38.40;;;13.60;;
60205;SDS011;46072;51.554;6.846;2022-11-11T05:03:17;36.97;;;14.35;;
60205;SDS011;46072;51.554;6.846;2022-11-11T05:05:57;47.47;;;15.68;;
60205;SDS011;46072;51.554;6.846;2022-11-11T05:08:43;33.25;;;14.25;;
60205;SDS011;46072;51.554;6.846;2022-11-11T05:11:31;40.40;;;13.52;;
60205;SDS011;46072;51.554;6.846;2022-11-11T05:14:02;36.78;;;14.15;;
60205;SDS011;46072;51.554;6.846;2022-11-11T05:16:52;38.42;;;14.52;;
60205;SDS011;46072;51.554;6.846;2022-11-11T05:19:39;32.75;;;13.48;;
60205;SDS011;46072;51.554;6.846;2022-11-11T05:22:36;39.00;;;13.10;;
60205;SDS011;46072;51.554;6.846;2022-11-11T05:25:04;32.60;;;12.55;;
60205;SDS011;46072;51.554;6.846;2022-11-11T05:27:53;31.73;;;13.32;;
60205;SDS011;46072;51.554;6.846;2022-11-11T05:30:21;30.95;;;12.68;;
60205;SDS011;46072;51.554;6.846;2022-11-11T05:32:48;34.00;;;12.13;;
60205;SDS011;46072;51.554;6.846;2022-11-11T05:35:15;34.70;;;12.85;;
60205;SDS011;46072;51.554;6.846;2022-11-11T05:37:42;28.42;;;11.95;;
60205;SDS011;46072;51.554;6.846;2022-11-11T05:40:09;33.10;;;12.45;;
60205;SDS011;46072;51.554;6.846;2022-11-11T05:42:39;31.75;;;12.57;;
60205;SDS011;46072;51.554;6.846;2022-11-11T05:45:14;31.20;;;12.52;;
60205;SDS011;46072;51.554;6.846;2022-11-11T05:47:41;27.83;;;10.75;;
60205;SDS011;46072;51.554;6.846;2022-11-11T05:50:07;33.22;;;12.23;;
60205;SDS011;46072;51.554;6.846;2022-11-11T05:52:34;26.10;;;11.63;;
60205;SDS011;46072;51.554;6.846;2022-11-11T05:55:00;33.35;;;11.55;;
60205;SDS011;46072;51.554;6.846;2022-11-11T05:57:27;31.52;;;10.90;;
60205;SDS011;46072;51.554;6.846;2022-11-11T05:59:53;31.90;;;12.00;;
60205;SDS011;46072;51.554;6.846;2022-11-11T06:02:19;31.65;;;11.45;;
60205;SDS011;46072;51.554;6.846;2022-11-11T06:04:46;29.67;;;11.75;;
60205;SDS011;46072;51.554;6.846;2022-11-11T06:07:13;27.67;;;11.90;;
60205;SDS011;46072;51.554;6.846;2022-11-11T06:09:39;33.80;;;11.60;;
60205;SDS011;46072;51.554;6.846;2022-11-11T06:12:06;31.77;;;11.45;;
60205;SDS011;46072;51.554;6.846;2022-11-11T06:14:32;27.50;;;11.23;;
60205;SDS011;46072;51.554;6.846;2022-11-11T06:16:58;31.27;;;11.38;;
60205;SDS011;46072;51.554;6.846;2022-11-11T06:19:25;24.73;;;9.85;;
60205;SDS011;46072;51.554;6.846;2022-11-11T06:21:51;28.90;;;10.85;;
60205;SDS011;46072;51.554;6.846;2022-11-11T06:24:24;28.73;;;10.93;;
60205;SDS011;46072;51.554;6.846;2022-11-11T06:26:52;33.85;;;9.90;;
60205;SDS011;46072;51.554;6.846;2022-11-11T06:29:20;29.58;;;11.68;;
60205;SDS011;46072;51.554;6.846;2022-11-11T06:31:46;28.02;;;10.90;;
60205;SDS011;46072;51.554;6.846;2022-11-11T06:34:13;23.38;;;10.10;;
60205;SDS011;46072;51.554;6.846;2022-11-11T06:36:40;22.92;;;9.23;;
60205;SDS011;46072;51.554;6.846;2022-11-11T06:39:06;26.33;;;10.00;;
60205;SDS011;46072;51.554;6.846;2022-11-11T06:41:33;27.75;;;9.73;;
60205;SDS011;46072;51.554;6.846;2022-11-11T06:43:59;31.48;;;9.95;;
60205;SDS011;46072;51.554;6.846;2022-11-11T06:46:26;27.13;;;9.90;;
60205;SDS011;46072;51.554;6.846;2022-11-11T06:48:52;25.13;;;9.23;;
60205;SDS011;46072;51.554;6.846;2022-11-11T06:51:19;23.15;;;10.35;;
60205;SDS011;46072;51.554;6.846;2022-11-11T06:53:45;26.13;;;9.15;;
60205;SDS011;46072;51.554;6.846;2022-11-11T06:56:12;22.95;;;9.90;;
60205;SDS011;46072;51.554;6.846;2022-11-11T06:58:38;24.85;;;8.68;;
60205;SDS011;46072;51.554;6.846;2022-11-11T07:01:05;29.30;;;8.98;;
60205;SDS011;46072;51.554;6.846;2022-11-11T07:03:33;22.17;;;9.27;;
60205;SDS011;46072;51.554;6.846;2022-11-11T07:06:00;21.88;;;9.20;;
60205;SDS011;46072;51.554;6.846;2022-11-11T07:08:27;25.70;;;9.25;;
60205;SDS011;46072;51.554;6.846;2022-11-11T07:10:54;26.27;;;9.13;;
60205;SDS011;46072;51.554;6.846;2022-11-11T07:13:21;26.25;;;9.13;;
60205;SDS011;46072;51.554;6.846;2022-11-11T07:15:47;20.40;;;9.00;;
60205;SDS011;46072;51.554;6.846;2022-11-11T07:18:13;23.15;;;9.25;;
60205;SDS011;46072;51.554;6.846;2022-11-11T07:20:40;21.05;;;9.20;;
60205;SDS011;46072;51.554;6.846;2022-11-11T07:23:06;23.52;;;8.43;;
60205;SDS011;46072;51.554;6.846;2022-11-11T07:25:33;18.73;;;8.68;;
60205;SDS011;46072;51.554;6.846;2022-11-11T07:27:59;19.88;;;7.85;;
60205;SDS011;46072;51.554;6.846;2022-11-11T07:30:26;24.38;;;9.73;;
60205;SDS011;46072;51.554;6.846;2022-11-11T07:32:52;20.52;;;8.93;;
60205;SDS011;46072;51.554;6.846;2022-11-11T07:35:19;20.35;;;8.38;;
60205;SDS011;46072;51.554;6.846;2022-11-11T07:37:47;18.95;;;8.85;;
60205;SDS011;46072;51.554;6.846;2022-11-11T07:40:14;21.55;;;8.63;;
60205;SDS011;46072;51.554;6.846;2022-11-11T07:42:42;16.38;;;7.15;;
60205;SDS011;46072;51.554;6.846;2022-11-11T07:45:09;23.88;;;8.20;;
60205;SDS011;46072;51.554;6.846;2022-11-11T07:47:36;21.83;;;9.55;;
60205;SDS011;46072;51.554;6.846;2022-11-11T07:50:04;21.70;;;9.75;;
60205;SDS011;46072;51.554;6.846;2022-11-11T07:52:33;21.58;;;8.30;;
60205;SDS011;46072;51.554;6.846;2022-11-11T07:55:02;21.75;;;7.82;;
60205;SDS011;46072;51.554;6.846;2022-11-11T07:57:29;22.45;;;9.23;;
60205;SDS011;46072;51.554;6.846;2022-11-11T07:59:56;24.17;;;7.65;;
60205;SDS011;46072;51.554;6.846;2022-11-11T08:02:22;18.65;;;7.80;;
60205;SDS011;46072;51.554;6.846;2022-11-11T08:04:48;20.33;;;8.10;;
60205;SDS011;46072;51.554;6.846;2022-11-11T08:07:21;21.35;;;8.35;;
60205;SDS011;46072;51.554;6.846;2022-11-11T08:09:49;19.38;;;8.55;;
60205;SDS011;46072;51.554;6.846;2022-11-11T08:12:15;20.50;;;8.40;;
60205;SDS011;46072;51.554;6.846;2022-11-11T08:15:00;27.25;;;9.32;;
60205;SDS011;46072;51.554;6.846;2022-11-11T08:17:35;19.55;;;7.38;;
60205;SDS011;46072;51.554;6.846;2022-11-11T08:20:03;19.25;;;8.50;;
60205;SDS011;46072;51.554;6.846;2022-11-11T08:22:34;22.23;;;8.25;;
60205;SDS011;46072;51.554;6.846;2022-11-11T08:25:01;22.33;;;7.30;;
60205;SDS011;46072;51.554;6.846;2022-11-11T08:27:30;24.13;;;8.00;;
60205;SDS011;46072;51.554;6.846;2022-11-11T08:29:56;22.95;;;8.82;;
60205;SDS011;46072;51.554;6.846;2022-11-11T08:32:23;16.45;;;7.32;;
60205;SDS011;46072;51.554;6.846;2022-11-11T08:34:49;22.80;;;7.97;;
60205;SDS011;46072;51.554;6.846;2022-11-11T08:37:16;18.90;;;7.40;;
60205;SDS011;46072;51.554;6.846;2022-11-11T08:39:42;16.90;;;6.80;;
60205;SDS011;46072;51.554;6.846;2022-11-11T08:42:09;15.02;;;6.85;;
60205;SDS011;46072;51.554;6.846;2022-11-11T08:44:35;16.17;;;7.18;;
60205;SDS011;46072;51.554;6.846;2022-11-11T08:47:01;18.33;;;7.03;;
60205;SDS011;46072;51.554;6.846;2022-11-11T08:49:28;17.77;;;7.38;;
60205;SDS011;46072;51.554;6.846;2022-11-11T08:51:54;21.08;;;7.00;;
60205;SDS011;46072;51.554;6.846;2022-11-11T08:54:21;21.90;;;6.70;;
60205;SDS011;46072;51.554;6.846;2022-11-11T08:56:47;22.23;;;6.53;;
60205;SDS011;46072;51.554;6.846;2022-11-11T08:59:14;16.17;;;5.75;;
60205;SDS011;46072;51.554;6.846;2022-11-11T09:01:40;18.63;;;7.35;;
60205;SDS011;46072;51.554;6.846;2022-11-11T09:04:06;14.35;;;5.97;;
60205;SDS011;46072;51.554;6.846;2022-11-11T09:06:53;18.58;;;6.35;;
60205;SDS011;46072;51.554;6.846;2022-11-11T09:09:19;18.60;;;6.65;;
60205;SDS011;46072;51.554;6.846;2022-11-11T09:11:46;18.05;;;7.03;;
60205;SDS011;46072;51.554;6.846;2022-11-11T09:14:12;15.73;;;6.07;;
60205;SDS011;46072;51.554;6.846;2022-11-11T09:16:39;27.73;;;6.57;;
60205;SDS011;46072;51.554;6.846;2022-11-11T09:19:05;17.73;;;6.80;;
60205;SDS011;46072;51.554;6.846;2022-11-11T09:21:31;15.43;;;6.32;;
60205;SDS011;46072;51.554;6.846;2022-11-11T09:23:58;13.50;;;6.07;;
60205;SDS011;46072;51.554;6.846;2022-11-11T09:26:25;17.45;;;7.05;;
60205;SDS011;46072;51.554;6.846;2022-11-11T09:28:52;17.38;;;7.00;;
60205;SDS011;46072;51.554;6.846;2022-11-11T09:31:18;23.98;;;7.05;;
60205;SDS011;46072;51.554;6.846;2022-11-11T09:34:04;17.73;;;5.97;;
60205;SDS011;46072;51.554;6.846;2022-11-11T09:36:32;14.63;;;7.97;;
60205;SDS011;46072;51.554;6.846;2022-11-11T09:38:58;15.82;;;6.47;;
60205;SDS011;46072;51.554;6.846;2022-11-11T09:44:22;18.42;;;5.80;;
60205;SDS011;46072;51.554;6.846;2022-11-11T09:47:04;21.35;;;6.47;;
60205;SDS011;46072;51.554;6.846;2022-11-11T09:57:47;20.45;;;6.18;;
60205;SDS011;46072;51.554;6.846;2022-11-11T10:00:17;15.70;;;5.53;;
60205;SDS011;46072;51.554;6.846;2022-11-11T10:02:49;15.73;;;6.28;;
60205;SDS011;46072;51.554;6.846;2022-11-11T10:05:19;18.60;;;5.35;;
60205;SDS011;46072;51.554;6.846;2022-11-11T10:07:53;14.32;;;5.78;;
60205;SDS011;46072;51.554;6.846;2022-11-11T10:10:24;19.52;;;7.00;;
60205;SDS011;46072;51.554;6.846;2022-11-11T10:12:53;15.63;;;5.70;;
60205;SDS011;46072;51.554;6.846;2022-11-11T10:15:22;14.60;;;5.53;;
60205;SDS011;46072;51.554;6.846;2022-11-11T10:20:54;16.65;;;6.45;;
60205;SDS011;46072;51.554;6.846;2022-11-11T10:23:31;13.10;;;6.25;;
60205;SDS011;46072;51.554;6.846;2022-11-11T10:26:01;16.33;;;6.60;;
60205;SDS011;46072;51.554;6.846;2022-11-11T10:28:32;15.00;;;6.00;;
60205;SDS011;46072;51.554;6.846;2022-11-11T10:31:03;14.95;;;5.80;;
60205;SDS011;46072;51.554;6.846;2022-11-11T10:33:35;20.50;;;5.97;;
60205;SDS011;46072;51.554;6.846;2022-11-11T10:36:08;18.27;;;6.68;;
60205;SDS011;46072;51.554;6.846;2022-11-11T10:41:48;17.85;;;6.07;;
60205;SDS011;46072;51.554;6.846;2022-11-11T10:44:20;16.67;;;6.28;;
60205;SDS011;46072;51.554;6.846;2022-11-11T10:49:39;11.35;;;5.85;;
60205;SDS011;46072;51.554;6.846;2022-11-11T10:52:09;26.13;;;7.43;;
60205;SDS011;46072;51.554;6.846;2022-11-11T10:55:21;18.50;;;5.90;;
60205;SDS011;46072;51.554;6.846;2022-11-11T10:57:28;18.37;;;6.10;;
60205;SDS011;46072;51.554;6.846;2022-11-11T11:02:31;18.60;;;6.22;;
60205;SDS011;46072;51.554;6.846;2022-11-11T11:05:02;17.13;;;6.35;;
60205;SDS011;46072;51.554;6.846;2022-11-11T11:07:40;25.00;;;6.93;;
60205;SDS011;46072;51.554;6.846;2022-11-11T11:10:32;17.00;;;6.53;;
60205;SDS011;46072;51.554;6.846;2022-11-11T11:13:09;21.60;;;5.40;;
60205;SDS011;46072;51.554;6.846;2022-11-11T11:15:41;19.48;;;6.28;;
60205;SDS011;46072;51.554;6.846;2022-11-11T11:18:15;21.75;;;6.20;;
60205;SDS011;46072;51.554;6.846;2022-11-11T11:20:56;19.90;;;7.20;;
60205;SDS011;46072;51.554;6.846;2022-11-11T11:23:41;15.85;;;6.10;;
60205;SDS011;46072;51.554;6.846;2022-11-11T11:26:09;21.35;;;6.47;;
60205;SDS011;46072;51.554;6.846;2022-11-11T11:28:54;23.20;;;5.80;;
60205;SDS011;46072;51.554;6.846;2022-11-11T11:31:35;18.88;;;5.32;;
60205;SDS011;46072;51.554;6.846;2022-11-11T11:34:03;13.95;;;5.47;;
60205;SDS011;46072;51.554;6.846;2022-11-11T11:36:29;14.07;;;5.05;;
60205;SDS011;46072;51.554;6.846;2022-11-11T11:38:56;13.48;;;4.10;;
60205;SDS011;46072;51.554;6.846;2022-11-11T11:41:38;14.27;;;4.07;;
60205;SDS011;46072;51.554;6.846;2022-11-11T11:46:59;14.93;;;4.78;;
60205;SDS011;46072;51.554;6.846;2022-11-11T11:52:20;16.98;;;5.05;;
60205;SDS011;46072;51.554;6.846;2022-11-11T11:55:03;19.60;;;5.88;;
60205;SDS011;46072;51.554;6.846;2022-11-11T12:05:24;21.27;;;5.88;;
60205;SDS011;46072;51.554;6.846;2022-11-11T12:08:08;19.98;;;6.07;;
60205;SDS011;46072;51.554;6.846;2022-11-11T12:10:48;18.15;;;6.63;;
60205;SDS011;46072;51.554;6.846;2022-11-11T12:13:40;17.88;;;6.63;;
60205;SDS011;46072;51.554;6.846;2022-11-11T12:16:22;18.73;;;5.85;;
60205;SDS011;46072;51.554;6.846;2022-11-11T12:21:21;19.60;;;5.53;;
60205;SDS011;46072;51.554;6.846;2022-11-11T12:26:35;18.45;;;6.43;;
60205;SDS011;46072;51.554;6.846;2022-11-11T12:31:55;16.10;;;6.40;;
60205;SDS011;46072;51.554;6.846;2022-11-11T12:37:22;11.73;;;4.88;;
60205;SDS011;46072;51.554;6.846;2022-11-11T12:45:16;13.35;;;5.47;;
60205;SDS011;46072;51.554;6.846;2022-11-11T12:51:03;18.65;;;6.95;;
60205;SDS011;46072;51.554;6.846;2022-11-11T12:53:54;24.55;;;6.75;;
60205;SDS011;46072;51.554;6.846;2022-11-11T12:56:31;21.00;;;6.57;;
60205;SDS011;46072;51.554;6.846;2022-11-11T13:12:42;17.38;;;6.65;;
60205;SDS011;46072;51.554;6.846;2022-11-11T13:15:22;13.05;;;5.47;;
60205;SDS011;46072;51.554;6.846;2022-11-11T13:17:50;17.05;;;6.57;;
60205;SDS011;46072;51.554;6.846;2022-11-11T13:22:54;19.08;;;6.13;;
60205;SDS011;46072;51.554;6.846;2022-11-11T13:25:21;19.02;;;6.72;;
60205;SDS011;46072;51.554;6.846;2022-11-11T13:27:54;15.63;;;5.32;;
60205;SDS011;46072;51.554;6.846;2022-11-11T13:33:13;13.73;;;5.15;;
60205;SDS011;46072;51.554;6.846;2022-11-11T13:35:56;18.33;;;6.03;;
60205;SDS011;46072;51.554;6.846;2022-11-11T13:38:26;15.43;;;5.25;;
60205;SDS011;46072;51.554;6.846;2022-11-11T13:40:53;14.98;;;5.03;;
60205;SDS011;46072;51.554;6.846;2022-11-11T13:43:22;11.57;;;4.93;;
60205;SDS011;46072;51.554;6.846;2022-11-11T13:45:53;14.55;;;6.05;;
60205;SDS011;46072;51.554;6.846;2022-11-11T13:48:32;12.25;;;4.82;;
60205;SDS011;46072;51.554;6.846;2022-11-11T13:51:10;11.07;;;4.68;;
60205;SDS011;46072;51.554;6.846;2022-11-11T13:53:38;12.50;;;5.35;;
60205;SDS011;46072;51.554;6.846;2022-11-11T13:56:04;9.80;;;3.97;;
60205;SDS011;46072;51.554;6.846;2022-11-11T13:58:34;10.57;;;4.28;;
60205;SDS011;46072;51.554;6.846;2022-11-11T14:01:03;11.70;;;4.30;;
60205;SDS011;46072;51.554;6.846;2022-11-11T14:03:35;7.80;;;4.07;;
60205;SDS011;46072;51.554;6.846;2022-11-11T14:08:55;20.10;;;4.85;;
60205;SDS011;46072;51.554;6.846;2022-11-11T14:13:52;8.10;;;3.92;;
60205;SDS011;46072;51.554;6.846;2022-11-11T14:18:58;15.70;;;3.85;;
60205;SDS011;46072;51.554;6.846;2022-11-11T14:24:35;8.15;;;3.42;;
60205;SDS011;46072;51.554;6.846;2022-11-11T14:29:35;10.75;;;3.85;;
60205;SDS011;46072;51.554;6.846;2022-11-11T14:34:59;9.25;;;3.55;;
60205;SDS011;46072;51.554;6.846;2022-11-11T14:37:37;9.60;;;3.85;;
60205;SDS011;46072;51.554;6.846;2022-11-11T14:40:26;15.50;;;4.07;;
60205;SDS011;46072;51.554;6.846;2022-11-11T14:42:54;8.70;;;3.53;;
60205;SDS011;46072;51.554;6.846;2022-11-11T14:47:54;9.77;;;3.70;;
60205;SDS011;46072;51.554;6.846;2022-11-11T14:52:57;8.40;;;3.28;;
60205;SDS011;46072;51.554;6.846;2022-11-11T14:55:25;8.60;;;3.42;;
60205;SDS011;46072;51.554;6.846;2022-11-11T14:57:56;9.18;;;3.53;;
60205;SDS011;46072;51.554;6.846;2022-11-11T15:00:25;10.43;;;3.60;;
60205;SDS011;46072;51.554;6.846;2022-11-11T15:05:55;8.68;;;3.33;;
60205;SDS011;46072;51.554;6.846;2022-11-11T15:08:35;9.52;;;3.90;;
60205;SDS011;46072;51.554;6.846;2022-11-11T15:13:56;11.00;;;4.30;;
60205;SDS011;46072;51.554;6.846;2022-11-11T15:16:45;11.30;;;3.83;;
60205;SDS011;46072;51.554;6.846;2022-11-11T15:22:37;11.27;;;4.80;;
60205;SDS011;46072;51.554;6.846;2022-11-11T15:34:00;11.20;;;4.95;;
60205;SDS011;46072;51.554;6.846;2022-11-11T15:39:13;13.05;;;4.80;;
60205;SDS011;46072;51.554;6.846;2022-11-11T15:41:41;13.82;;;4.85;;
60205;SDS011;46072;51.554;6.846;2022-11-11T15:44:13;12.27;;;5.47;;
60205;SDS011;46072;51.554;6.846;2022-11-11T15:46:44;12.88;;;5.05;;
60205;SDS011;46072;51.554;6.846;2022-11-11T15:49:17;10.93;;;5.05;;
60205;SDS011;46072;51.554;6.846;2022-11-11T15:52:31;15.98;;;5.10;;
60205;SDS011;46072;51.554;6.846;2022-11-11T15:54:58;13.00;;;5.28;;
60205;SDS011;46072;51.554;6.846;2022-11-11T15:59:55;16.67;;;5.15;;
60205;SDS011;46072;51.554;6.846;2022-11-11T16:02:23;13.27;;;5.18;;
60205;SDS011;46072;51.554;6.846;2022-11-11T16:04:57;10.15;;;5.00;;
60205;SDS011;46072;51.554;6.846;2022-11-11T16:07:29;10.70;;;4.63;;
60205;SDS011;46072;51.554;6.846;2022-11-11T16:12:31;13.52;;;4.90;;
60205;SDS011;46072;51.554;6.846;2022-11-11T16:15:02;11.25;;;5.75;;
60205;SDS011;46072;51.554;6.846;2022-11-11T16:17:35;10.52;;;4.82;;
60205;SDS011;46072;51.554;6.846;2022-11-11T16:20:04;13.73;;;5.03;;
60205;SDS011;46072;51.554;6.846;2022-11-11T16:22:31;12.73;;;5.70;;
60205;SDS011;46072;51.554;6.846;2022-11-11T16:25:01;15.75;;;5.97;;
60205;SDS011;46072;51.554;6.846;2022-11-11T16:27:30;13.85;;;4.82;;
60205;SDS011;46072;51.554;6.846;2022-11-11T16:30:17;12.50;;;5.50;;
60205;SDS011;46072;51.554;6.846;2022-11-11T16:32:44;15.90;;;5.63;;
60205;SDS011;46072;51.554;6.846;2022-11-11T16:38:00;35.80;;;18.90;;
60205;SDS011;46072;51.554;6.846;2022-11-11T16:40:33;67.22;;;32.97;;
60205;SDS011;46072;51.554;6.846;2022-11-11T16:45:57;96.40;;;48.63;;
60205;SDS011;46072;51.554;6.846;2022-11-11T16:50:57;76.72;;;41.17;;
60205;SDS011;46072;51.554;6.846;2022-11-11T16:53:30;53.80;;;24.08;;
60205;SDS011;46072;51.554;6.846;2022-11-11T16:58:29;33.45;;;16.00;;
60205;SDS011;46072;51.554;6.846;2022-11-11T17:00:59;38.17;;;17.17;;
60205;SDS011;46072;51.554;6.846;2022-11-11T17:10:54;33.00;;;14.45;;
60205;SDS011;46072;51.554;6.846;2022-11-11T17:13:20;30.85;;;13.60;;
60205;SDS011;46072;51.554;6.846;2022-11-11T17:15:47;29.05;;;14.98;;
60205;SDS011;46072;51.554;6.846;2022-11-11T17:18:13;30.70;;;14.27;;
60205;SDS011;46072;51.554;6.846;2022-11-11T17:20:39;30.95;;;14.45;;